Buoy 41938

sailwx.info

Track history (hours):
 
Tides and Currents Weather Stations Pressure Air Temp Water Temp Dewpoint Dewpoint Depression Visibility Wind Speed Wind Dir Waves Ship Positions

Drifting buoy 41938

Last reported at 2014-Jul-30 01:00 UTC. Time now 2014-Jul-30 03:06 UTC.
Position N 31°03' W 070°54'.

Barometer 1017.3 mb
Water temperature 28.3 ° C

Date/timePositionNaut miles runAvg speedWind from/ knotsBaromVisibWave heightAir tempDewpointWater temp
2014-Jul-30 01:00N 31°03' W 070°54'1 0.9 1017.3 28.3
2014-Jul-30 00:00N 31°03' W 070°53'2 1.1 1017.0 28.3
2014-Jul-29 22:00N 31°03' W 070°51'1 0.9 1017.0 28.3
2014-Jul-29 21:00N 31°03' W 070°50'0 0.0 1017.1 28.3
2014-Jul-29 20:00N 31°03' W 070°50'1 0.8 1017.3 28.3
2014-Jul-29 19:00N 31°04' W 070°49'1 0.4 1018.1 28.3
2014-Jul-29 17:00N 31°05' W 070°50'0 0.2 1018.1 28.4
2014-Jul-29 15:00N 31°05' W 070°50'0 0.0 1017.3 28.4
2014-Jul-29 14:00N 31°05' W 070°50'0 0.4 1017.3 28.3
2014-Jul-29 13:00N 31°05' W 070°50'1 0.9 1017.1 28.3
2014-Jul-29 12:00N 31°05' W 070°51'0 0.0 1017.3 28.3
2014-Jul-29 11:00N 31°05' W 070°51'1 0.5 1016.4 28.3
2014-Jul-29 09:00N 31°04' W 070°51'0 0.3 1015.7 -0.1
2014-Jul-29 08:00N 31°04' W 070°50'1 0.7 1015.6 28.3
2014-Jul-29 07:00N 31°03' W 070°50'0 0.0 1016.1 28.3
2014-Jul-29 06:00N 31°03' W 070°50'2 0.6 1016.3 28.4
2014-Jul-29 02:00N 31°01' W 070°48'0 0.4 1017.4 28.4
2014-Jul-29 01:00N 31°02' W 070°47'0 0.0 1017.3 28.4
2014-Jul-29 00:00N 31°02' W 070°47'2 0.8 1016.9 28.4
2014-Jul-28 22:00N 31°01' W 070°46'1 0.8 1016.9 28.4
2014-Jul-28 21:00N 31°01' W 070°45'1 0.5 1017.1 28.5
2014-Jul-28 20:00N 31°02' W 070°45'1 0.8 1017.1 28.4
2014-Jul-28 19:00N 31°02' W 070°44'0 0.0 1017.4 28.5
2014-Jul-28 17:00N 31°02' W 070°44'0 0.1 1018.2 28.4
2014-Jul-28 15:00N 31°03' W 070°44'0 0.1 1018.2 28.4
2014-Jul-28 11:00N 31°03' W 070°44'1 0.8 1017.4 28.4
2014-Jul-28 10:00N 31°02' W 070°44'0 0.1 1016.9 28.4
2014-Jul-28 09:00N 31°02' W 070°44'0 0.3 1016.7 28.4
2014-Jul-28 08:00N 31°01' W 070°44'1 1.0 1016.6 28.4
2014-Jul-28 07:00N 31°01' W 070°43'2 1.8 1016.7 28.4
2014-Jul-28 06:00N 31°00' W 070°41'0 0.0 1017.2 28.5
2014-Jul-28 02:00N 31°00' W 070°41'1 0.9 1018.4 28.5
2014-Jul-28 01:00N 31°00' W 070°40'0 0.1 1018.4 28.5
2014-Jul-28 00:00N 30°60' W 070°40'0 0.3 1018.2 28.5
2014-Jul-27 23:00N 31°00' W 070°40'1 0.3 1018.0 28.5
2014-Jul-27 20:00N 31°00' W 070°39'1 0.6 1018.3 28.6
2014-Jul-27 19:00N 31°00' W 070°38'0 0.2 1018.3 28.6
2014-Jul-27 17:00N 31°01' W 070°38'0 0.4 1019.4 28.5
2014-Jul-27 16:00N 31°01' W 070°38'0 0.1 1019.7 28.5
2014-Jul-27 15:00N 31°01' W 070°38'1 1.0 1020.1 28.5
2014-Jul-27 14:00N 30°60' W 070°38'0 0.0 1019.7 28.5
2014-Jul-27 11:00N 30°60' W 070°38'0 0.5 1018.4 28.5
2014-Jul-27 10:00N 30°59' W 070°37'0 0.4 1017.8 28.6
2014-Jul-27 09:00N 30°59' W 070°38'1 0.7 1018.1 28.6
2014-Jul-27 08:00N 30°59' W 070°37'3 1.7 1017.8 28.6
2014-Jul-27 06:00N 30°57' W 070°34'2 0.4 1018.4 28.6
2014-Jul-27 02:00N 30°57' W 070°33'1 0.6 1019.4 28.7
2014-Jul-27 01:00N 30°56' W 070°33'1 0.7 1019.8 28.7
2014-Jul-27 00:00N 30°57' W 070°32'1 0.7 1019.6 28.7
2014-Jul-26 22:00N 30°57' W 070°31'0 0.4 1019.2 28.7
2014-Jul-26 21:00N 30°57' W 070°30'0 0.4 1019.4 -0.1
2014-Jul-26 20:00N 30°57' W 070°30'1 0.5 1019.4 28.8
2014-Jul-26 19:00N 30°57' W 070°29'1 0.2 1019.6 28.7
2014-Jul-26 15:00N 30°58' W 070°30'1 1.0 1020.4 28.7
2014-Jul-26 14:00N 30°57' W 070°29'1 0.4 1020.2 28.6
2014-Jul-26 11:00N 30°56' W 070°29'0 0.5 1019.6 28.6
2014-Jul-26 10:00N 30°56' W 070°29'0 0.4 1019.4 28.6
2014-Jul-26 09:00N 30°55' W 070°29'1 0.9 1019.0 28.6
2014-Jul-26 08:00N 30°55' W 070°28'1 0.9 1019.2 28.6
2014-Jul-26 07:00N 30°54' W 070°28'3 2.8 1019.3 28.6
2014-Jul-26 06:00N 30°51' W 070°26'0 0.0 1019.6 28.6
2014-Jul-26 03:00N 30°51' W 070°26'1 1.3 1020.7 28.6
2014-Jul-26 02:00N 30°52' W 070°25'1 1.2 1020.5 28.6
2014-Jul-26 01:00N 30°52' W 070°24'1 1.2 1019.8 28.6
2014-Jul-26 00:00N 30°52' W 070°22'0 0.2 1019.4 28.6
2014-Jul-25 22:00N 30°52' W 070°22'1 0.7 1018.7 28.7
2014-Jul-25 21:00N 30°53' W 070°21'0 0.1 1018.6 28.7
2014-Jul-25 20:00N 30°53' W 070°21'1 0.5 1018.9 28.7
2014-Jul-25 18:00N 30°54' W 070°21'1 0.3 1019.8 28.7
2014-Jul-25 15:00N 30°53' W 070°22'0 0.4 1020.5 28.6
2014-Jul-25 14:00N 30°53' W 070°22'1 0.6 1020.4 28.5
2014-Jul-25 13:00N 30°53' W 070°22'0 0.0 1020.5 28.5
2014-Jul-25 12:00N 30°53' W 070°22'2 1.2 1020.0 28.5
2014-Jul-25 10:00N 30°50' W 070°22'2 2.1 1019.3 28.5
2014-Jul-25 09:00N 30°49' W 070°20'0 0.0 1018.6 28.5
2014-Jul-25 06:00N 30°49' W 070°20'0 0.0 1018.6 28.5
2014-Jul-25 05:00N 30°49' W 070°20'3 0.9 1019.2 28.6
2014-Jul-25 02:00N 30°47' W 070°17'0 0.2 1019.3 28.6
2014-Jul-25 01:00N 30°47' W 070°17'1 1.3 1019.1 28.6
2014-Jul-25 00:00N 30°48' W 070°16'0 0.0 1018.7 28.6
2014-Jul-24 23:00N 30°48' W 070°16'1 0.6 1018.6 28.6
2014-Jul-24 22:00N 30°47' W 070°16'0 0.4 1018.5 28.6
2014-Jul-24 21:00N 30°48' W 070°16'0 0.1 1018.6 28.7
2014-Jul-24 20:00N 30°48' W 070°16'0 0.0 1018.8 28.7
2014-Jul-24 19:00N 30°48' W 070°16'1 1.3 1019.0 28.7
2014-Jul-24 18:00N 30°48' W 070°18'2 0.8 1019.4 28.6
2014-Jul-24 16:00N 30°46' W 070°17'1 0.6 1020.1 28.6
2014-Jul-24 15:00N 30°46' W 070°18'0 0.0 1019.9 28.6
2014-Jul-24 14:00N 30°46' W 070°18'2 1.6 1020.2 28.6
2014-Jul-24 13:00N 30°44' W 070°17'1 0.6 1019.8 28.6
2014-Jul-24 11:00N 30°43' W 070°17'1 0.7 1019.8 28.6
2014-Jul-24 10:00N 30°43' W 070°17'0 0.3 1019.6 28.6
2014-Jul-24 09:00N 30°42' W 070°16'2 0.8 1019.3 28.7
2014-Jul-24 07:00N 30°41' W 070°15'3 2.8 1019.1 28.7
2014-Jul-24 06:00N 30°39' W 070°13'1 0.2 1019.5 28.7
2014-Jul-24 02:00N 30°39' W 070°12'0 0.0 1021.3 28.7
2014-Jul-24 01:00N 30°39' W 070°12'0 0.0 1021.5 28.7
2014-Jul-24 00:00N 30°39' W 070°12'0 0.0 1021.6 28.8
2014-Jul-23 23:00N 30°39' W 070°12'1 0.7 1021.5 28.8
2014-Jul-23 22:00N 30°39' W 070°11'0 0.4 1021.3 28.8
2014-Jul-23 21:00N 30°39' W 070°11'0 0.2 1021.4 28.8
2014-Jul-23 20:00N 30°38' W 070°11'0 0.2 1021.5 28.8
2014-Jul-23 19:00N 30°38' W 070°11'0 0.3 1021.6 28.9
2014-Jul-23 18:00N 30°38' W 070°11'1 0.4 1022.2 28.9
2014-Jul-23 16:00N 30°37' W 070°11'4 1.9 1022.1 28.8
2014-Jul-23 14:00N 30°33' W 070°12'2 0.4 1022.3 28.7
2014-Jul-23 10:00N 30°33' W 070°11'3 0.9 1022.1 28.7
2014-Jul-23 07:00N 30°30' W 070°10'2 1.1 1022.0 28.7
2014-Jul-23 05:00N 30°28' W 070°09'2 0.5 1023.0 28.7
2014-Jul-23 02:00N 30°28' W 070°08'1 0.8 1023.2 28.8
2014-Jul-23 01:00N 30°28' W 070°07'0 0.3 1023.2 28.8
2014-Jul-23 00:00N 30°27' W 070°07'1 0.5 1023.0 28.9
2014-Jul-22 21:00N 30°26' W 070°07'0 0.0 1022.5 29.0
2014-Jul-22 19:00N 30°26' W 070°07'3 0.6 1022.7 29.0
2014-Jul-22 15:00N 30°23' W 070°08'4 3.7 1023.5 28.7
2014-Jul-22 14:00N 30°20' W 070°08'0 0.1 1023.2 28.7
2014-Jul-22 10:00N 30°19' W 070°08'1 1.1 1022.1 28.6
2014-Jul-22 09:00N 30°19' W 070°07'1 1.0 1021.9 28.6
2014-Jul-22 08:00N 30°18' W 070°06'1 1.2 1021.8 28.6
2014-Jul-22 07:00N 30°17' W 070°06'2 1.0 1021.9 28.6
2014-Jul-22 05:00N 30°15' W 070°06'0 0.0 1022.5 28.7
2014-Jul-22 04:00N 30°15' W 070°06'1 0.3 1023.2 28.7
2014-Jul-22 02:00N 30°15' W 070°05'2 1.8 1023.5 28.8
2014-Jul-22 01:00N 30°13' W 070°05'0 0.0 1022.9 28.8
2014-Jul-22 00:00N 30°13' W 070°05'0 0.0 1022.6 28.8
2014-Jul-21 23:00N 30°13' W 070°05'0 0.0 1022.2 28.9
2014-Jul-21 22:00N 30°13' W 070°05'1 0.8 1022.1 29.0
2014-Jul-21 21:00N 30°13' W 070°06'0 0.3 1022.0 29.0
2014-Jul-21 20:00N 30°12' W 070°06'2 1.0 1022.1 29.1
2014-Jul-21 18:00N 30°10' W 070°07'0 0.1 1022.8 28.9
2014-Jul-21 17:00N 30°10' W 070°06'2 0.8 1023.0 28.8
2014-Jul-21 15:00N 30°09' W 070°06'0 0.5 1023.0 28.7
2014-Jul-21 14:00N 30°08' W 070°07'2 1.6 1022.9 28.6
2014-Jul-21 13:00N 30°07' W 070°07'0 0.0 1022.7 28.6
2014-Jul-21 12:00N 30°07' W 070°07'0 0.0 1022.5 28.5
2014-Jul-21 11:00N 30°07' W 070°07'1 0.7 1022.2 28.5
2014-Jul-21 10:00N 30°06' W 070°07'1 1.0 1021.7 28.5
2014-Jul-21 09:00N 30°05' W 070°07'1 0.7 1021.2 28.5
2014-Jul-21 08:00N 30°04' W 070°07'1 1.3 1021.1 28.6
2014-Jul-21 07:00N 30°03' W 070°07'0 0.0 1021.2 28.6
2014-Jul-21 05:00N 30°03' W 070°07'2 0.9 1022.1 28.6
2014-Jul-21 03:00N 30°02' W 070°06'1 0.5 1022.3 28.6
2014-Jul-21 02:00N 30°01' W 070°05'0 0.4 1022.3 28.7
2014-Jul-21 01:00N 30°01' W 070°06'0 0.0 1021.9 28.7
2014-Jul-21 00:00N 30°01' W 070°06'0 0.3 1021.5 28.7
2014-Jul-20 23:00N 30°01' W 070°06'0 0.4 1021.3 28.8
2014-Jul-20 22:00N 30°00' W 070°06'0 0.4 1021.3 28.8
2014-Jul-20 21:00N 30°00' W 070°07'1 0.6 1021.0 28.9
2014-Jul-20 19:00N 29°59' W 070°07'1 1.3 1021.7 28.8
2014-Jul-20 18:00N 29°58' W 070°08'1 1.3 1022.1 28.7
2014-Jul-20 17:00N 29°57' W 070°08'0 0.0 1022.3 28.7
2014-Jul-20 15:00N 29°57' W 070°08'1 0.5 1022.5 28.6
2014-Jul-20 14:00N 29°56' W 070°07'1 0.6 1022.2 28.5
2014-Jul-20 13:00N 29°56' W 070°08'1 0.7 1021.7 28.5
2014-Jul-20 12:00N 29°55' W 070°08'0 0.3 1021.7 28.5
2014-Jul-20 11:00N 29°55' W 070°08'1 0.8 1021.3 28.5
2014-Jul-20 10:00N 29°55' W 070°08'1 0.5 1020.7 28.5
2014-Jul-20 09:00N 29°54' W 070°08'1 0.8 1020.9 28.5
2014-Jul-20 08:00N 29°53' W 070°08'0 0.0 1020.8 28.5
2014-Jul-20 07:00N 29°53' W 070°08'2 0.9 1021.1 28.5
2014-Jul-20 05:00N 29°51' W 070°09'0 0.0 1022.2 28.5
2014-Jul-20 04:00N 29°51' W 070°09'1 0.3 1022.6 28.5
2014-Jul-20 01:00N 29°51' W 070°09'   1022.3 28.6
Track history (hours):
 
Tides and Currents Weather Stations Pressure Air Temp Water Temp Dewpoint Dewpoint Depression Visibility Wind Speed Wind Dir Waves Ship Positions

Drifting buoy 41938

Last reported at 2014-Jul-30 01:00 UTC. Time now 2014-Jul-30 03:06 UTC.
Position N 31°03' W 070°54'.

Barometer 1017.3 mb
Water temperature 28.3 ° C

Date/timePositionNaut miles runAvg speedWind from/ knotsBaromVisibWave heightAir tempDewpointWater temp
2014-Jul-30 01:00N 31°03' W 070°54'1 0.9 1017.3 28.3
2014-Jul-30 00:00N 31°03' W 070°53'2 1.1 1017.0 28.3
2014-Jul-29 22:00N 31°03' W 070°51'1 0.9 1017.0 28.3
2014-Jul-29 21:00N 31°03' W 070°50'0 0.0 1017.1 28.3
2014-Jul-29 20:00N 31°03' W 070°50'1 0.8 1017.3 28.3
2014-Jul-29 19:00N 31°04' W 070°49'1 0.4 1018.1 28.3
2014-Jul-29 17:00N 31°05' W 070°50'0 0.2 1018.1 28.4
2014-Jul-29 15:00N 31°05' W 070°50'0 0.0 1017.3 28.4
2014-Jul-29 14:00N 31°05' W 070°50'0 0.4 1017.3 28.3
2014-Jul-29 13:00N 31°05' W 070°50'1 0.9 1017.1 28.3
2014-Jul-29 12:00N 31°05' W 070°51'0 0.0 1017.3 28.3
2014-Jul-29 11:00N 31°05' W 070°51'1 0.5 1016.4 28.3
2014-Jul-29 09:00N 31°04' W 070°51'0 0.3 1015.7 -0.1
2014-Jul-29 08:00N 31°04' W 070°50'1 0.7 1015.6 28.3
2014-Jul-29 07:00N 31°03' W 070°50'0 0.0 1016.1 28.3
2014-Jul-29 06:00N 31°03' W 070°50'2 0.6 1016.3 28.4
2014-Jul-29 02:00N 31°01' W 070°48'0 0.4 1017.4 28.4
2014-Jul-29 01:00N 31°02' W 070°47'0 0.0 1017.3 28.4
2014-Jul-29 00:00N 31°02' W 070°47'2 0.8 1016.9 28.4
2014-Jul-28 22:00N 31°01' W 070°46'1 0.8 1016.9 28.4
2014-Jul-28 21:00N 31°01' W 070°45'1 0.5 1017.1 28.5
2014-Jul-28 20:00N 31°02' W 070°45'1 0.8 1017.1 28.4
2014-Jul-28 19:00N 31°02' W 070°44'0 0.0 1017.4 28.5
2014-Jul-28 17:00N 31°02' W 070°44'0 0.1 1018.2 28.4
2014-Jul-28 15:00N 31°03' W 070°44'0 0.1 1018.2 28.4
2014-Jul-28 11:00N 31°03' W 070°44'1 0.8 1017.4 28.4
2014-Jul-28 10:00N 31°02' W 070°44'0 0.1 1016.9 28.4
2014-Jul-28 09:00N 31°02' W 070°44'0 0.3 1016.7 28.4
2014-Jul-28 08:00N 31°01' W 070°44'1 1.0 1016.6 28.4
2014-Jul-28 07:00N 31°01' W 070°43'2 1.8 1016.7 28.4
2014-Jul-28 06:00N 31°00' W 070°41'0 0.0 1017.2 28.5
2014-Jul-28 02:00N 31°00' W 070°41'1 0.9 1018.4 28.5
2014-Jul-28 01:00N 31°00' W 070°40'0 0.1 1018.4 28.5
2014-Jul-28 00:00N 30°60' W 070°40'0 0.3 1018.2 28.5
2014-Jul-27 23:00N 31°00' W 070°40'1 0.3 1018.0 28.5
2014-Jul-27 20:00N 31°00' W 070°39'1 0.6 1018.3 28.6
2014-Jul-27 19:00N 31°00' W 070°38'0 0.2 1018.3 28.6
2014-Jul-27 17:00N 31°01' W 070°38'0 0.4 1019.4 28.5
2014-Jul-27 16:00N 31°01' W 070°38'0 0.1 1019.7 28.5
2014-Jul-27 15:00N 31°01' W 070°38'1 1.0 1020.1 28.5
2014-Jul-27 14:00N 30°60' W 070°38'0 0.0 1019.7 28.5
2014-Jul-27 11:00N 30°60' W 070°38'0 0.5 1018.4 28.5
2014-Jul-27 10:00N 30°59' W 070°37'0 0.4 1017.8 28.6
2014-Jul-27 09:00N 30°59' W 070°38'1 0.7 1018.1 28.6
2014-Jul-27 08:00N 30°59' W 070°37'3 1.7 1017.8 28.6
2014-Jul-27 06:00N 30°57' W 070°34'2 0.4 1018.4 28.6
2014-Jul-27 02:00N 30°57' W 070°33'1 0.6 1019.4 28.7
2014-Jul-27 01:00N 30°56' W 070°33'1 0.7 1019.8 28.7
2014-Jul-27 00:00N 30°57' W 070°32'1 0.7 1019.6 28.7
2014-Jul-26 22:00N 30°57' W 070°31'0 0.4 1019.2 28.7
2014-Jul-26 21:00N 30°57' W 070°30'0 0.4 1019.4 -0.1
2014-Jul-26 20:00N 30°57' W 070°30'1 0.5 1019.4 28.8
2014-Jul-26 19:00N 30°57' W 070°29'1 0.2 1019.6 28.7
2014-Jul-26 15:00N 30°58' W 070°30'1 1.0 1020.4 28.7
2014-Jul-26 14:00N 30°57' W 070°29'1 0.4 1020.2 28.6
2014-Jul-26 11:00N 30°56' W 070°29'0 0.5 1019.6 28.6
2014-Jul-26 10:00N 30°56' W 070°29'0 0.4 1019.4 28.6
2014-Jul-26 09:00N 30°55' W 070°29'1 0.9 1019.0 28.6
2014-Jul-26 08:00N 30°55' W 070°28'1 0.9 1019.2 28.6
2014-Jul-26 07:00N 30°54' W 070°28'3 2.8 1019.3 28.6
2014-Jul-26 06:00N 30°51' W 070°26'0 0.0 1019.6 28.6
2014-Jul-26 03:00N 30°51' W 070°26'1 1.3 1020.7 28.6
2014-Jul-26 02:00N 30°52' W 070°25'1 1.2 1020.5 28.6
2014-Jul-26 01:00N 30°52' W 070°24'1 1.2 1019.8 28.6
2014-Jul-26 00:00N 30°52' W 070°22'0 0.2 1019.4 28.6
2014-Jul-25 22:00N 30°52' W 070°22'1 0.7 1018.7 28.7
2014-Jul-25 21:00N 30°53' W 070°21'0 0.1 1018.6 28.7
2014-Jul-25 20:00N 30°53' W 070°21'1 0.5 1018.9 28.7
2014-Jul-25 18:00N 30°54' W 070°21'1 0.3 1019.8 28.7
2014-Jul-25 15:00N 30°53' W 070°22'0 0.4 1020.5 28.6
2014-Jul-25 14:00N 30°53' W 070°22'1 0.6 1020.4 28.5
2014-Jul-25 13:00N 30°53' W 070°22'0 0.0 1020.5 28.5
2014-Jul-25 12:00N 30°53' W 070°22'2 1.2 1020.0 28.5
2014-Jul-25 10:00N 30°50' W 070°22'2 2.1 1019.3 28.5
2014-Jul-25 09:00N 30°49' W 070°20'0 0.0 1018.6 28.5
2014-Jul-25 06:00N 30°49' W 070°20'0 0.0 1018.6 28.5
2014-Jul-25 05:00N 30°49' W 070°20'3 0.9 1019.2 28.6
2014-Jul-25 02:00N 30°47' W 070°17'0 0.2 1019.3 28.6
2014-Jul-25 01:00N 30°47' W 070°17'1 1.3 1019.1 28.6
2014-Jul-25 00:00N 30°48' W 070°16'0 0.0 1018.7 28.6
2014-Jul-24 23:00N 30°48' W 070°16'1 0.6 1018.6 28.6
2014-Jul-24 22:00N 30°47' W 070°16'0 0.4 1018.5 28.6
2014-Jul-24 21:00N 30°48' W 070°16'0 0.1 1018.6 28.7
2014-Jul-24 20:00N 30°48' W 070°16'0 0.0 1018.8 28.7
2014-Jul-24 19:00N 30°48' W 070°16'1 1.3 1019.0 28.7
2014-Jul-24 18:00N 30°48' W 070°18'2 0.8 1019.4 28.6
2014-Jul-24 16:00N 30°46' W 070°17'1 0.6 1020.1 28.6
2014-Jul-24 15:00N 30°46' W 070°18'0 0.0 1019.9 28.6
2014-Jul-24 14:00N 30°46' W 070°18'2 1.6 1020.2 28.6
2014-Jul-24 13:00N 30°44' W 070°17'1 0.6 1019.8 28.6
2014-Jul-24 11:00N 30°43' W 070°17'1 0.7 1019.8 28.6
2014-Jul-24 10:00N 30°43' W 070°17'0 0.3 1019.6 28.6
2014-Jul-24 09:00N 30°42' W 070°16'2 0.8 1019.3 28.7
2014-Jul-24 07:00N 30°41' W 070°15'3 2.8 1019.1 28.7
2014-Jul-24 06:00N 30°39' W 070°13'1 0.2 1019.5 28.7
2014-Jul-24 02:00N 30°39' W 070°12'0 0.0 1021.3 28.7
2014-Jul-24 01:00N 30°39' W 070°12'0 0.0 1021.5 28.7
2014-Jul-24 00:00N 30°39' W 070°12'0 0.0 1021.6 28.8
2014-Jul-23 23:00N 30°39' W 070°12'1 0.7 1021.5 28.8
2014-Jul-23 22:00N 30°39' W 070°11'0 0.4 1021.3 28.8
2014-Jul-23 21:00N 30°39' W 070°11'0 0.2 1021.4 28.8
2014-Jul-23 20:00N 30°38' W 070°11'0 0.2 1021.5 28.8
2014-Jul-23 19:00N 30°38' W 070°11'0 0.3 1021.6 28.9
2014-Jul-23 18:00N 30°38' W 070°11'1 0.4 1022.2 28.9
2014-Jul-23 16:00N 30°37' W 070°11'4 1.9 1022.1 28.8
2014-Jul-23 14:00N 30°33' W 070°12'2 0.4 1022.3 28.7
2014-Jul-23 10:00N 30°33' W 070°11'3 0.9 1022.1 28.7
2014-Jul-23 07:00N 30°30' W 070°10'2 1.1 1022.0 28.7
2014-Jul-23 05:00N 30°28' W 070°09'2 0.5 1023.0 28.7
2014-Jul-23 02:00N 30°28' W 070°08'1 0.8 1023.2 28.8
2014-Jul-23 01:00N 30°28' W 070°07'0 0.3 1023.2 28.8
2014-Jul-23 00:00N 30°27' W 070°07'1 0.5 1023.0 28.9
2014-Jul-22 21:00N 30°26' W 070°07'0 0.0 1022.5 29.0
2014-Jul-22 19:00N 30°26' W 070°07'3 0.6 1022.7 29.0
2014-Jul-22 15:00N 30°23' W 070°08'4 3.7 1023.5 28.7
2014-Jul-22 14:00N 30°20' W 070°08'0 0.1 1023.2 28.7
2014-Jul-22 10:00N 30°19' W 070°08'1 1.1 1022.1 28.6
2014-Jul-22 09:00N 30°19' W 070°07'1 1.0 1021.9 28.6
2014-Jul-22 08:00N 30°18' W 070°06'1 1.2 1021.8 28.6
2014-Jul-22 07:00N 30°17' W 070°06'2 1.0 1021.9 28.6
2014-Jul-22 05:00N 30°15' W 070°06'0 0.0 1022.5 28.7
2014-Jul-22 04:00N 30°15' W 070°06'1 0.3 1023.2 28.7
2014-Jul-22 02:00N 30°15' W 070°05'2 1.8 1023.5 28.8
2014-Jul-22 01:00N 30°13' W 070°05'0 0.0 1022.9 28.8
2014-Jul-22 00:00N 30°13' W 070°05'0 0.0 1022.6 28.8
2014-Jul-21 23:00N 30°13' W 070°05'0 0.0 1022.2 28.9
2014-Jul-21 22:00N 30°13' W 070°05'1 0.8 1022.1 29.0
2014-Jul-21 21:00N 30°13' W 070°06'0 0.3 1022.0 29.0
2014-Jul-21 20:00N 30°12' W 070°06'2 1.0 1022.1 29.1
2014-Jul-21 18:00N 30°10' W 070°07'0 0.1 1022.8 28.9
2014-Jul-21 17:00N 30°10' W 070°06'2 0.8 1023.0 28.8
2014-Jul-21 15:00N 30°09' W 070°06'0 0.5 1023.0 28.7
2014-Jul-21 14:00N 30°08' W 070°07'2 1.6 1022.9 28.6
2014-Jul-21 13:00N 30°07' W 070°07'0 0.0 1022.7 28.6
2014-Jul-21 12:00N 30°07' W 070°07'0 0.0 1022.5 28.5
2014-Jul-21 11:00N 30°07' W 070°07'1 0.7 1022.2 28.5
2014-Jul-21 10:00N 30°06' W 070°07'1 1.0 1021.7 28.5
2014-Jul-21 09:00N 30°05' W 070°07'1 0.7 1021.2 28.5
2014-Jul-21 08:00N 30°04' W 070°07'1 1.3 1021.1 28.6
2014-Jul-21 07:00N 30°03' W 070°07'0 0.0 1021.2 28.6
2014-Jul-21 05:00N 30°03' W 070°07'2 0.9 1022.1 28.6
2014-Jul-21 03:00N 30°02' W 070°06'1 0.5 1022.3 28.6
2014-Jul-21 02:00N 30°01' W 070°05'0 0.4 1022.3 28.7
2014-Jul-21 01:00N 30°01' W 070°06'0 0.0 1021.9 28.7
2014-Jul-21 00:00N 30°01' W 070°06'0 0.3 1021.5 28.7
2014-Jul-20 23:00N 30°01' W 070°06'0 0.4 1021.3 28.8
2014-Jul-20 22:00N 30°00' W 070°06'0 0.4 1021.3 28.8
2014-Jul-20 21:00N 30°00' W 070°07'1 0.6 1021.0 28.9
2014-Jul-20 19:00N 29°59' W 070°07'1 1.3 1021.7 28.8
2014-Jul-20 18:00N 29°58' W 070°08'1 1.3 1022.1 28.7
2014-Jul-20 17:00N 29°57' W 070°08'0 0.0 1022.3 28.7
2014-Jul-20 15:00N 29°57' W 070°08'1 0.5 1022.5 28.6
2014-Jul-20 14:00N 29°56' W 070°07'1 0.6 1022.2 28.5
2014-Jul-20 13:00N 29°56' W 070°08'1 0.7 1021.7 28.5
2014-Jul-20 12:00N 29°55' W 070°08'0 0.3 1021.7 28.5
2014-Jul-20 11:00N 29°55' W 070°08'1 0.8 1021.3 28.5
2014-Jul-20 10:00N 29°55' W 070°08'1 0.5 1020.7 28.5
2014-Jul-20 09:00N 29°54' W 070°08'1 0.8 1020.9 28.5
2014-Jul-20 08:00N 29°53' W 070°08'0 0.0 1020.8 28.5
2014-Jul-20 07:00N 29°53' W 070°08'2 0.9 1021.1 28.5
2014-Jul-20 05:00N 29°51' W 070°09'0 0.0 1022.2 28.5
2014-Jul-20 04:00N 29°51' W 070°09'1 0.3 1022.6 28.5
2014-Jul-20 01:00N 29°51' W 070°09'   1022.3 28.6

Dump ship's entire track history